sensor_id;sensor_type;location;lat;lon;timestamp;P1;durP1;ratioP1;P2;durP2;ratioP2
54191;SDS011;40101;53.002;6.488;2024-02-14T00:00:20;9.70;;;6.90;;
54191;SDS011;40101;53.002;6.488;2024-02-14T00:02:46;9.45;;;6.65;;
54191;SDS011;40101;53.002;6.488;2024-02-14T00:08:26;10.70;;;7.65;;
54191;SDS011;40101;53.002;6.488;2024-02-14T00:15:07;8.65;;;7.32;;
54191;SDS011;40101;53.002;6.488;2024-02-14T00:20:40;12.48;;;7.10;;
54191;SDS011;40101;53.002;6.488;2024-02-14T00:23:12;10.07;;;7.25;;
54191;SDS011;40101;53.002;6.488;2024-02-14T00:25:42;13.48;;;7.63;;
54191;SDS011;40101;53.002;6.488;2024-02-14T00:28:09;9.68;;;7.05;;
54191;SDS011;40101;53.002;6.488;2024-02-14T00:30:52;10.98;;;7.80;;
54191;SDS011;40101;53.002;6.488;2024-02-14T00:33:27;11.95;;;8.73;;
54191;SDS011;40101;53.002;6.488;2024-02-14T00:36:42;12.15;;;8.18;;
54191;SDS011;40101;53.002;6.488;2024-02-14T00:38:57;9.16;;;7.86;;
54191;SDS011;40101;53.002;6.488;2024-02-14T00:44:11;10.55;;;8.38;;
54191;SDS011;40101;53.002;6.488;2024-02-14T00:46:37;15.30;;;11.05;;
54191;SDS011;40101;53.002;6.488;2024-02-14T00:49:03;11.85;;;7.22;;
54191;SDS011;40101;53.002;6.488;2024-02-14T00:51:29;11.15;;;7.18;;
54191;SDS011;40101;53.002;6.488;2024-02-14T00:53:54;11.25;;;8.07;;
54191;SDS011;40101;53.002;6.488;2024-02-14T00:56:22;10.30;;;7.18;;
54191;SDS011;40101;53.002;6.488;2024-02-14T00:58:48;11.68;;;7.50;;
54191;SDS011;40101;53.002;6.488;2024-02-14T01:01:17;10.32;;;8.32;;
54191;SDS011;40101;53.002;6.488;2024-02-14T01:03:46;13.07;;;8.50;;
54191;SDS011;40101;53.002;6.488;2024-02-14T01:06:12;13.90;;;9.95;;
54191;SDS011;40101;53.002;6.488;2024-02-14T01:08:41;11.00;;;8.48;;
54191;SDS011;40101;53.002;6.488;2024-02-14T01:11:07;13.00;;;9.75;;
54191;SDS011;40101;53.002;6.488;2024-02-14T01:13:36;10.65;;;7.28;;
54191;SDS011;40101;53.002;6.488;2024-02-14T01:16:07;10.27;;;7.68;;
54191;SDS011;40101;53.002;6.488;2024-02-14T01:18:38;11.02;;;7.05;;
54191;SDS011;40101;53.002;6.488;2024-02-14T01:21:04;9.27;;;6.93;;
54191;SDS011;40101;53.002;6.488;2024-02-14T01:23:34;10.90;;;7.60;;
54191;SDS011;40101;53.002;6.488;2024-02-14T01:26:00;11.63;;;7.05;;
54191;SDS011;40101;53.002;6.488;2024-02-14T01:28:27;11.40;;;7.13;;
54191;SDS011;40101;53.002;6.488;2024-02-14T01:30:53;8.82;;;7.07;;
54191;SDS011;40101;53.002;6.488;2024-02-14T01:33:18;10.55;;;9.55;;
54191;SDS011;40101;53.002;6.488;2024-02-14T01:35:48;8.48;;;7.07;;
54191;SDS011;40101;53.002;6.488;2024-02-14T01:38:14;9.60;;;6.38;;
54191;SDS011;40101;53.002;6.488;2024-02-14T01:40:46;9.15;;;5.85;;
54191;SDS011;40101;53.002;6.488;2024-02-14T01:43:12;7.90;;;6.00;;
54191;SDS011;40101;53.002;6.488;2024-02-14T01:45:39;9.35;;;7.43;;
54191;SDS011;40101;53.002;6.488;2024-02-14T01:48:05;7.13;;;6.07;;
54191;SDS011;40101;53.002;6.488;2024-02-14T01:50:33;7.32;;;6.03;;
54191;SDS011;40101;53.002;6.488;2024-02-14T01:53:00;7.45;;;6.20;;
54191;SDS011;40101;53.002;6.488;2024-02-14T01:55:27;7.78;;;6.15;;
54191;SDS011;40101;53.002;6.488;2024-02-14T01:58:02;9.35;;;6.05;;
54191;SDS011;40101;53.002;6.488;2024-02-14T02:00:35;7.10;;;6.05;;
54191;SDS011;40101;53.002;6.488;2024-02-14T02:03:03;7.40;;;5.68;;
54191;SDS011;40101;53.002;6.488;2024-02-14T02:05:34;6.50;;;5.80;;
54191;SDS011;40101;53.002;6.488;2024-02-14T02:07:59;9.80;;;6.78;;
54191;SDS011;40101;53.002;6.488;2024-02-14T02:10:26;7.53;;;6.15;;
54191;SDS011;40101;53.002;6.488;2024-02-14T02:12:57;7.30;;;6.13;;
54191;SDS011;40101;53.002;6.488;2024-02-14T02:15:24;9.35;;;6.15;;
54191;SDS011;40101;53.002;6.488;2024-02-14T02:17:54;6.95;;;5.85;;
54191;SDS011;40101;53.002;6.488;2024-02-14T02:20:21;8.15;;;5.60;;
54191;SDS011;40101;53.002;6.488;2024-02-14T02:22:48;10.50;;;6.20;;
54191;SDS011;40101;53.002;6.488;2024-02-14T02:25:14;6.57;;;5.35;;
54191;SDS011;40101;53.002;6.488;2024-02-14T02:27:48;5.72;;;5.03;;
54191;SDS011;40101;53.002;6.488;2024-02-14T02:30:14;7.28;;;5.53;;
54191;SDS011;40101;53.002;6.488;2024-02-14T02:32:42;6.32;;;5.63;;
54191;SDS011;40101;53.002;6.488;2024-02-14T02:35:10;6.53;;;4.88;;
54191;SDS011;40101;53.002;6.488;2024-02-14T02:37:38;6.60;;;5.68;;
54191;SDS011;40101;53.002;6.488;2024-02-14T02:40:07;8.32;;;5.35;;
54191;SDS011;40101;53.002;6.488;2024-02-14T02:42:38;7.13;;;5.60;;
54191;SDS011;40101;53.002;6.488;2024-02-14T02:45:03;5.95;;;5.07;;
54191;SDS011;40101;53.002;6.488;2024-02-14T02:47:31;7.03;;;6.05;;
54191;SDS011;40101;53.002;6.488;2024-02-14T02:49:57;6.53;;;5.57;;
54191;SDS011;40101;53.002;6.488;2024-02-14T02:52:25;7.10;;;5.65;;
54191;SDS011;40101;53.002;6.488;2024-02-14T02:54:50;7.90;;;5.40;;
54191;SDS011;40101;53.002;6.488;2024-02-14T02:57:17;7.70;;;5.68;;
54191;SDS011;40101;53.002;6.488;2024-02-14T02:59:44;7.00;;;5.78;;
54191;SDS011;40101;53.002;6.488;2024-02-14T03:02:11;5.70;;;4.93;;
54191;SDS011;40101;53.002;6.488;2024-02-14T03:04:37;5.45;;;4.95;;
54191;SDS011;40101;53.002;6.488;2024-02-14T03:07:04;8.23;;;5.40;;
54191;SDS011;40101;53.002;6.488;2024-02-14T03:09:32;8.73;;;4.70;;
54191;SDS011;40101;53.002;6.488;2024-02-14T03:11:58;5.60;;;4.55;;
54191;SDS011;40101;53.002;6.488;2024-02-14T03:14:28;6.65;;;4.63;;
54191;SDS011;40101;53.002;6.488;2024-02-14T03:16:59;5.32;;;4.40;;
54191;SDS011;40101;53.002;6.488;2024-02-14T03:19:25;6.28;;;4.70;;
54191;SDS011;40101;53.002;6.488;2024-02-14T03:21:57;6.10;;;4.70;;
54191;SDS011;40101;53.002;6.488;2024-02-14T03:24:23;6.85;;;5.43;;
54191;SDS011;40101;53.002;6.488;2024-02-14T03:26:51;6.57;;;4.80;;
54191;SDS011;40101;53.002;6.488;2024-02-14T03:29:19;6.95;;;5.57;;
54191;SDS011;40101;53.002;6.488;2024-02-14T03:31:46;6.18;;;4.85;;
54191;SDS011;40101;53.002;6.488;2024-02-14T03:34:13;6.65;;;5.05;;
54191;SDS011;40101;53.002;6.488;2024-02-14T03:36:48;8.73;;;5.05;;
54191;SDS011;40101;53.002;6.488;2024-02-14T03:39:14;6.22;;;4.85;;
54191;SDS011;40101;53.002;6.488;2024-02-14T03:41:42;10.18;;;5.05;;
54191;SDS011;40101;53.002;6.488;2024-02-14T03:44:07;6.32;;;5.07;;
54191;SDS011;40101;53.002;6.488;2024-02-14T03:46:34;6.13;;;4.80;;
54191;SDS011;40101;53.002;6.488;2024-02-14T03:49:00;6.35;;;5.10;;
54191;SDS011;40101;53.002;6.488;2024-02-14T03:51:29;7.15;;;4.38;;
54191;SDS011;40101;53.002;6.488;2024-02-14T03:53:55;6.22;;;5.05;;
54191;SDS011;40101;53.002;6.488;2024-02-14T03:56:20;9.02;;;4.90;;
54191;SDS011;40101;53.002;6.488;2024-02-14T04:01:21;5.88;;;4.43;;
54191;SDS011;40101;53.002;6.488;2024-02-14T04:03:49;6.10;;;5.00;;
54191;SDS011;40101;53.002;6.488;2024-02-14T04:06:19;6.90;;;4.93;;
54191;SDS011;40101;53.002;6.488;2024-02-14T04:08:45;5.68;;;4.70;;
54191;SDS011;40101;53.002;6.488;2024-02-14T04:11:16;6.15;;;4.60;;
54191;SDS011;40101;53.002;6.488;2024-02-14T04:13:59;5.65;;;4.90;;
54191;SDS011;40101;53.002;6.488;2024-02-14T04:16:40;6.55;;;4.63;;
54191;SDS011;40101;53.002;6.488;2024-02-14T04:19:24;6.90;;;4.63;;
54191;SDS011;40101;53.002;6.488;2024-02-14T04:22:08;7.03;;;5.20;;
54191;SDS011;40101;53.002;6.488;2024-02-14T04:27:51;6.32;;;4.82;;
54191;SDS011;40101;53.002;6.488;2024-02-14T04:33:59;6.53;;;5.18;;
54191;SDS011;40101;53.002;6.488;2024-02-14T04:36:28;6.97;;;5.00;;
54191;SDS011;40101;53.002;6.488;2024-02-14T04:41:53;5.95;;;4.63;;
54191;SDS011;40101;53.002;6.488;2024-02-14T04:44:26;6.18;;;4.90;;
54191;SDS011;40101;53.002;6.488;2024-02-14T04:47:13;6.07;;;4.88;;
54191;SDS011;40101;53.002;6.488;2024-02-14T04:49:40;5.88;;;4.22;;
54191;SDS011;40101;53.002;6.488;2024-02-14T04:52:09;5.35;;;4.68;;
54191;SDS011;40101;53.002;6.488;2024-02-14T04:54:35;4.25;;;3.70;;
54191;SDS011;40101;53.002;6.488;2024-02-14T04:57:08;5.43;;;4.43;;
54191;SDS011;40101;53.002;6.488;2024-02-14T04:59:59;5.20;;;3.83;;
54191;SDS011;40101;53.002;6.488;2024-02-14T05:02:31;4.60;;;3.92;;
54191;SDS011;40101;53.002;6.488;2024-02-14T05:05:22;5.25;;;4.13;;
54191;SDS011;40101;53.002;6.488;2024-02-14T05:08:13;5.82;;;4.00;;
54191;SDS011;40101;53.002;6.488;2024-02-14T05:10:51;4.20;;;3.80;;
54191;SDS011;40101;53.002;6.488;2024-02-14T05:13:30;5.20;;;4.57;;
54191;SDS011;40101;53.002;6.488;2024-02-14T05:16:06;6.25;;;4.63;;
54191;SDS011;40101;53.002;6.488;2024-02-14T05:18:38;5.43;;;4.57;;
54191;SDS011;40101;53.002;6.488;2024-02-14T05:30:01;6.95;;;4.30;;
54191;SDS011;40101;53.002;6.488;2024-02-14T05:32:46;4.40;;;3.92;;
54191;SDS011;40101;53.002;6.488;2024-02-14T05:38:15;5.10;;;4.32;;
54191;SDS011;40101;53.002;6.488;2024-02-14T05:40:45;5.28;;;3.97;;
54191;SDS011;40101;53.002;6.488;2024-02-14T05:43:11;5.50;;;4.63;;
54191;SDS011;40101;53.002;6.488;2024-02-14T05:48:40;5.85;;;4.90;;
54191;SDS011;40101;53.002;6.488;2024-02-14T05:51:07;5.68;;;4.47;;
54191;SDS011;40101;53.002;6.488;2024-02-14T05:53:35;6.78;;;4.63;;
54191;SDS011;40101;53.002;6.488;2024-02-14T05:56:25;14.18;;;13.00;;
54191;SDS011;40101;53.002;6.488;2024-02-14T05:59:09;8.23;;;5.35;;
54191;SDS011;40101;53.002;6.488;2024-02-14T06:01:35;15.27;;;6.35;;
54191;SDS011;40101;53.002;6.488;2024-02-14T06:04:33;10.27;;;7.05;;
54191;SDS011;40101;53.002;6.488;2024-02-14T06:07:09;16.42;;;7.85;;
54191;SDS011;40101;53.002;6.488;2024-02-14T06:09:39;14.98;;;8.35;;
54191;SDS011;40101;53.002;6.488;2024-02-14T06:12:10;14.63;;;8.27;;
54191;SDS011;40101;53.002;6.488;2024-02-14T06:14:36;20.17;;;8.30;;
54191;SDS011;40101;53.002;6.488;2024-02-14T06:17:08;17.42;;;8.55;;
54191;SDS011;40101;53.002;6.488;2024-02-14T06:19:34;16.52;;;8.43;;
54191;SDS011;40101;53.002;6.488;2024-02-14T06:22:12;20.73;;;9.13;;
54191;SDS011;40101;53.002;6.488;2024-02-14T06:24:58;21.05;;;9.85;;
54191;SDS011;40101;53.002;6.488;2024-02-14T06:27:33;22.90;;;10.80;;
54191;SDS011;40101;53.002;6.488;2024-02-14T06:30:35;20.20;;;9.25;;
54191;SDS011;40101;53.002;6.488;2024-02-14T06:33:38;31.13;;;10.82;;
54191;SDS011;40101;53.002;6.488;2024-02-14T06:36:10;30.27;;;11.65;;
54191;SDS011;40101;53.002;6.488;2024-02-14T06:38:35;27.42;;;11.95;;
54191;SDS011;40101;53.002;6.488;2024-02-14T06:41:01;31.23;;;13.52;;
54191;SDS011;40101;53.002;6.488;2024-02-14T06:43:27;37.15;;;11.38;;
54191;SDS011;40101;53.002;6.488;2024-02-14T06:45:55;30.50;;;13.13;;
54191;SDS011;40101;53.002;6.488;2024-02-14T06:48:21;44.35;;;14.18;;
54191;SDS011;40101;53.002;6.488;2024-02-14T06:50:49;47.25;;;14.10;;
54191;SDS011;40101;53.002;6.488;2024-02-14T06:53:15;48.95;;;13.77;;
54191;SDS011;40101;53.002;6.488;2024-02-14T06:55:40;36.63;;;13.45;;
54191;SDS011;40101;53.002;6.488;2024-02-14T06:58:06;56.60;;;17.15;;
54191;SDS011;40101;53.002;6.488;2024-02-14T07:00:32;41.58;;;14.43;;
54191;SDS011;40101;53.002;6.488;2024-02-14T07:02:58;47.72;;;14.10;;
54191;SDS011;40101;53.002;6.488;2024-02-14T07:05:24;40.85;;;13.05;;
54191;SDS011;40101;53.002;6.488;2024-02-14T07:07:51;45.40;;;13.20;;
54191;SDS011;40101;53.002;6.488;2024-02-14T07:10:17;53.63;;;14.90;;
54191;SDS011;40101;53.002;6.488;2024-02-14T07:12:43;50.08;;;14.98;;
54191;SDS011;40101;53.002;6.488;2024-02-14T07:15:09;46.92;;;14.68;;
54191;SDS011;40101;53.002;6.488;2024-02-14T07:17:35;48.80;;;15.32;;
54191;SDS011;40101;53.002;6.488;2024-02-14T07:20:01;51.33;;;14.80;;
54191;SDS011;40101;53.002;6.488;2024-02-14T07:22:27;41.50;;;14.13;;
54191;SDS011;40101;53.002;6.488;2024-02-14T07:24:52;38.13;;;13.35;;
54191;SDS011;40101;53.002;6.488;2024-02-14T07:27:18;42.78;;;13.77;;
54191;SDS011;40101;53.002;6.488;2024-02-14T07:29:45;39.50;;;14.68;;
54191;SDS011;40101;53.002;6.488;2024-02-14T07:32:11;42.35;;;13.18;;
54191;SDS011;40101;53.002;6.488;2024-02-14T07:34:40;43.90;;;14.10;;
54191;SDS011;40101;53.002;6.488;2024-02-14T07:37:06;53.50;;;14.82;;
54191;SDS011;40101;53.002;6.488;2024-02-14T07:39:32;49.60;;;14.43;;
54191;SDS011;40101;53.002;6.488;2024-02-14T07:41:59;42.53;;;14.05;;
54191;SDS011;40101;53.002;6.488;2024-02-14T07:44:28;48.05;;;14.63;;
54191;SDS011;40101;53.002;6.488;2024-02-14T07:46:54;40.70;;;13.85;;
54191;SDS011;40101;53.002;6.488;2024-02-14T07:49:20;52.00;;;15.40;;
54191;SDS011;40101;53.002;6.488;2024-02-14T07:51:46;36.17;;;12.23;;
54191;SDS011;40101;53.002;6.488;2024-02-14T07:54:11;44.10;;;14.80;;
54191;SDS011;40101;53.002;6.488;2024-02-14T07:56:37;30.73;;;13.20;;
54191;SDS011;40101;53.002;6.488;2024-02-14T07:59:03;43.38;;;14.18;;
54191;SDS011;40101;53.002;6.488;2024-02-14T08:01:30;48.42;;;14.85;;
54191;SDS011;40101;53.002;6.488;2024-02-14T08:03:56;39.17;;;14.13;;
54191;SDS011;40101;53.002;6.488;2024-02-14T08:06:21;44.42;;;13.38;;
54191;SDS011;40101;53.002;6.488;2024-02-14T08:08:47;40.40;;;14.68;;
54191;SDS011;40101;53.002;6.488;2024-02-14T08:11:19;48.05;;;12.85;;
54191;SDS011;40101;53.002;6.488;2024-02-14T08:13:45;35.22;;;13.18;;
54191;SDS011;40101;53.002;6.488;2024-02-14T08:16:11;30.92;;;11.50;;
54191;SDS011;40101;53.002;6.488;2024-02-14T08:18:37;29.55;;;9.95;;
54191;SDS011;40101;53.002;6.488;2024-02-14T08:21:05;32.85;;;10.73;;
54191;SDS011;40101;53.002;6.488;2024-02-14T08:23:31;23.45;;;9.05;;
54191;SDS011;40101;53.002;6.488;2024-02-14T08:25:59;29.55;;;8.18;;
54191;SDS011;40101;53.002;6.488;2024-02-14T08:28:25;22.10;;;8.88;;
54191;SDS011;40101;53.002;6.488;2024-02-14T08:30:50;22.85;;;10.35;;
54191;SDS011;40101;53.002;6.488;2024-02-14T08:33:16;25.40;;;9.57;;
54191;SDS011;40101;53.002;6.488;2024-02-14T08:35:44;30.30;;;11.10;;
54191;SDS011;40101;53.002;6.488;2024-02-14T08:38:14;24.80;;;12.05;;
54191;SDS011;40101;53.002;6.488;2024-02-14T08:40:40;35.10;;;11.95;;
54191;SDS011;40101;53.002;6.488;2024-02-14T08:43:05;26.73;;;11.45;;
54191;SDS011;40101;53.002;6.488;2024-02-14T08:45:32;30.27;;;10.80;;
54191;SDS011;40101;53.002;6.488;2024-02-14T08:47:57;40.65;;;11.25;;
54191;SDS011;40101;53.002;6.488;2024-02-14T08:50:26;40.30;;;14.20;;
54191;SDS011;40101;53.002;6.488;2024-02-14T08:52:52;27.52;;;11.07;;
54191;SDS011;40101;53.002;6.488;2024-02-14T08:55:18;22.83;;;10.90;;
54191;SDS011;40101;53.002;6.488;2024-02-14T08:57:43;24.40;;;11.43;;
54191;SDS011;40101;53.002;6.488;2024-02-14T09:00:13;29.23;;;12.18;;
54191;SDS011;40101;53.002;6.488;2024-02-14T09:05:36;39.25;;;11.32;;
54191;SDS011;40101;53.002;6.488;2024-02-14T09:08:07;25.90;;;10.80;;
54191;SDS011;40101;53.002;6.488;2024-02-14T09:10:33;30.15;;;12.60;;
54191;SDS011;40101;53.002;6.488;2024-02-14T09:12:59;28.13;;;10.65;;
54191;SDS011;40101;53.002;6.488;2024-02-14T09:15:25;36.95;;;11.55;;
54191;SDS011;40101;53.002;6.488;2024-02-14T09:17:51;34.42;;;12.88;;
54191;SDS011;40101;53.002;6.488;2024-02-14T09:20:17;33.60;;;12.40;;
54191;SDS011;40101;53.002;6.488;2024-02-14T09:22:44;31.92;;;11.85;;
54191;SDS011;40101;53.002;6.488;2024-02-14T09:25:09;28.65;;;12.25;;
54191;SDS011;40101;53.002;6.488;2024-02-14T09:27:35;30.02;;;11.45;;
54191;SDS011;40101;53.002;6.488;2024-02-14T09:30:01;33.88;;;13.38;;
54191;SDS011;40101;53.002;6.488;2024-02-14T09:32:33;23.58;;;10.23;;
54191;SDS011;40101;53.002;6.488;2024-02-14T09:34:59;28.60;;;12.43;;
54191;SDS011;40101;53.002;6.488;2024-02-14T09:37:25;26.85;;;10.55;;
54191;SDS011;40101;53.002;6.488;2024-02-14T09:39:52;28.00;;;11.45;;
54191;SDS011;40101;53.002;6.488;2024-02-14T09:42:19;24.25;;;10.77;;
54191;SDS011;40101;53.002;6.488;2024-02-14T09:44:52;22.77;;;10.52;;
54191;SDS011;40101;53.002;6.488;2024-02-14T09:47:23;25.38;;;10.77;;
54191;SDS011;40101;53.002;6.488;2024-02-14T09:49:52;27.83;;;10.23;;
54191;SDS011;40101;53.002;6.488;2024-02-14T09:52:18;25.40;;;12.80;;
54191;SDS011;40101;53.002;6.488;2024-02-14T09:54:45;26.95;;;9.88;;
54191;SDS011;40101;53.002;6.488;2024-02-14T09:57:14;27.33;;;10.77;;
54191;SDS011;40101;53.002;6.488;2024-02-14T09:59:43;15.95;;;6.60;;
54191;SDS011;40101;53.002;6.488;2024-02-14T10:02:16;15.50;;;7.38;;
54191;SDS011;40101;53.002;6.488;2024-02-14T10:04:45;19.02;;;9.20;;
54191;SDS011;40101;53.002;6.488;2024-02-14T10:07:10;12.30;;;6.78;;
54191;SDS011;40101;53.002;6.488;2024-02-14T10:09:40;15.75;;;6.25;;
54191;SDS011;40101;53.002;6.488;2024-02-14T10:12:07;12.90;;;5.78;;
54191;SDS011;40101;53.002;6.488;2024-02-14T10:14:36;11.38;;;5.82;;
54191;SDS011;40101;53.002;6.488;2024-02-14T10:17:02;9.75;;;4.53;;
54191;SDS011;40101;53.002;6.488;2024-02-14T10:19:35;11.25;;;5.25;;
54191;SDS011;40101;53.002;6.488;2024-02-14T10:22:01;9.20;;;5.65;;
54191;SDS011;40101;53.002;6.488;2024-02-14T10:24:30;13.32;;;5.72;;
54191;SDS011;40101;53.002;6.488;2024-02-14T10:26:58;12.25;;;5.72;;
54191;SDS011;40101;53.002;6.488;2024-02-14T10:29:25;11.98;;;5.03;;
54191;SDS011;40101;53.002;6.488;2024-02-14T10:31:50;9.60;;;4.57;;
54191;SDS011;40101;53.002;6.488;2024-02-14T10:34:23;10.00;;;4.78;;
54191;SDS011;40101;53.002;6.488;2024-02-14T10:36:52;11.55;;;6.40;;
54191;SDS011;40101;53.002;6.488;2024-02-14T10:39:21;10.15;;;5.97;;
54191;SDS011;40101;53.002;6.488;2024-02-14T10:41:50;14.05;;;6.72;;
54191;SDS011;40101;53.002;6.488;2024-02-14T10:44:16;10.75;;;7.43;;
54191;SDS011;40101;53.002;6.488;2024-02-14T10:46:42;15.50;;;7.72;;
54191;SDS011;40101;53.002;6.488;2024-02-14T10:49:09;16.10;;;8.68;;
54191;SDS011;40101;53.002;6.488;2024-02-14T10:51:36;14.30;;;8.82;;
54191;SDS011;40101;53.002;6.488;2024-02-14T10:54:04;21.10;;;9.13;;
54191;SDS011;40101;53.002;6.488;2024-02-14T10:56:38;14.75;;;9.48;;
54191;SDS011;40101;53.002;6.488;2024-02-14T10:59:08;13.82;;;8.95;;
54191;SDS011;40101;53.002;6.488;2024-02-14T11:01:36;16.67;;;9.25;;
54191;SDS011;40101;53.002;6.488;2024-02-14T11:04:03;17.40;;;10.18;;
54191;SDS011;40101;53.002;6.488;2024-02-14T11:06:43;17.48;;;10.73;;
54191;SDS011;40101;53.002;6.488;2024-02-14T11:09:11;14.27;;;8.88;;
54191;SDS011;40101;53.002;6.488;2024-02-14T11:11:38;14.10;;;9.57;;
54191;SDS011;40101;53.002;6.488;2024-02-14T11:14:04;16.95;;;9.05;;
54191;SDS011;40101;53.002;6.488;2024-02-14T11:16:31;13.90;;;8.55;;
54191;SDS011;40101;53.002;6.488;2024-02-14T11:19:11;16.42;;;9.18;;
54191;SDS011;40101;53.002;6.488;2024-02-14T11:21:41;14.90;;;8.73;;
54191;SDS011;40101;53.002;6.488;2024-02-14T11:24:11;21.33;;;10.38;;
54191;SDS011;40101;53.002;6.488;2024-02-14T11:29:18;17.02;;;11.18;;
54191;SDS011;40101;53.002;6.488;2024-02-14T11:31:44;22.60;;;11.57;;
54191;SDS011;40101;53.002;6.488;2024-02-14T11:34:14;21.85;;;13.30;;
54191;SDS011;40101;53.002;6.488;2024-02-14T11:36:43;22.58;;;12.32;;
54191;SDS011;40101;53.002;6.488;2024-02-14T11:39:10;22.67;;;12.45;;
54191;SDS011;40101;53.002;6.488;2024-02-14T11:41:37;21.40;;;11.65;;
54191;SDS011;40101;53.002;6.488;2024-02-14T11:44:04;24.67;;;12.20;;
54191;SDS011;40101;53.002;6.488;2024-02-14T11:46:33;22.48;;;13.10;;
54191;SDS011;40101;53.002;6.488;2024-02-14T11:49:00;24.08;;;13.02;;
54191;SDS011;40101;53.002;6.488;2024-02-14T11:51:28;22.38;;;13.07;;
54191;SDS011;40101;53.002;6.488;2024-02-14T11:53:54;23.25;;;12.80;;
54191;SDS011;40101;53.002;6.488;2024-02-14T11:56:21;22.88;;;13.07;;
54191;SDS011;40101;53.002;6.488;2024-02-14T11:58:49;21.63;;;13.15;;
54191;SDS011;40101;53.002;6.488;2024-02-14T12:01:16;21.27;;;12.70;;
54191;SDS011;40101;53.002;6.488;2024-02-14T12:03:46;19.90;;;13.30;;
54191;SDS011;40101;53.002;6.488;2024-02-14T12:06:18;26.60;;;14.52;;
54191;SDS011;40101;53.002;6.488;2024-02-14T12:08:50;22.27;;;15.20;;
54191;SDS011;40101;53.002;6.488;2024-02-14T12:11:16;20.42;;;13.52;;
54191;SDS011;40101;53.002;6.488;2024-02-14T12:13:42;20.63;;;14.25;;
54191;SDS011;40101;53.002;6.488;2024-02-14T12:16:11;18.20;;;12.80;;
54191;SDS011;40101;53.002;6.488;2024-02-14T12:18:37;19.63;;;12.88;;
54191;SDS011;40101;53.002;6.488;2024-02-14T12:21:05;17.52;;;13.05;;
54191;SDS011;40101;53.002;6.488;2024-02-14T12:23:37;17.60;;;12.40;;
54191;SDS011;40101;53.002;6.488;2024-02-14T12:26:03;18.15;;;12.98;;
54191;SDS011;40101;53.002;6.488;2024-02-14T12:28:32;17.98;;;12.63;;
54191;SDS011;40101;53.002;6.488;2024-02-14T12:30:58;18.30;;;12.40;;
54191;SDS011;40101;53.002;6.488;2024-02-14T12:33:24;16.63;;;11.77;;
54191;SDS011;40101;53.002;6.488;2024-02-14T12:35:50;15.60;;;11.98;;
54191;SDS011;40101;53.002;6.488;2024-02-14T12:38:18;15.65;;;11.70;;
54191;SDS011;40101;53.002;6.488;2024-02-14T12:40:44;17.38;;;11.70;;
54191;SDS011;40101;53.002;6.488;2024-02-14T12:43:11;16.35;;;11.82;;
54191;SDS011;40101;53.002;6.488;2024-02-14T12:45:38;15.30;;;10.98;;
54191;SDS011;40101;53.002;6.488;2024-02-14T12:48:07;15.75;;;12.23;;
54191;SDS011;40101;53.002;6.488;2024-02-14T12:50:34;16.20;;;10.98;;
54191;SDS011;40101;53.002;6.488;2024-02-14T12:53:06;16.20;;;11.02;;
54191;SDS011;40101;53.002;6.488;2024-02-14T12:55:33;13.27;;;10.43;;
54191;SDS011;40101;53.002;6.488;2024-02-14T12:58:01;13.57;;;10.35;;
54191;SDS011;40101;53.002;6.488;2024-02-14T13:00:28;13.45;;;10.13;;
54191;SDS011;40101;53.002;6.488;2024-02-14T13:02:56;18.45;;;10.35;;
54191;SDS011;40101;53.002;6.488;2024-02-14T13:05:22;14.45;;;10.48;;
54191;SDS011;40101;53.002;6.488;2024-02-14T13:07:47;14.88;;;11.07;;
54191;SDS011;40101;53.002;6.488;2024-02-14T13:10:13;15.10;;;10.50;;
54191;SDS011;40101;53.002;6.488;2024-02-14T13:12:39;15.27;;;11.50;;
54191;SDS011;40101;53.002;6.488;2024-02-14T13:15:05;17.15;;;11.35;;
54191;SDS011;40101;53.002;6.488;2024-02-14T13:17:31;17.83;;;12.75;;
54191;SDS011;40101;53.002;6.488;2024-02-14T13:19:57;18.20;;;12.73;;
54191;SDS011;40101;53.002;6.488;2024-02-14T13:22:25;18.92;;;13.00;;
54191;SDS011;40101;53.002;6.488;2024-02-14T13:24:51;18.98;;;12.88;;
54191;SDS011;40101;53.002;6.488;2024-02-14T13:27:17;20.80;;;13.73;;
54191;SDS011;40101;53.002;6.488;2024-02-14T13:29:42;20.00;;;14.10;;
54191;SDS011;40101;53.002;6.488;2024-02-14T13:32:12;25.20;;;15.27;;
54191;SDS011;40101;53.002;6.488;2024-02-14T13:34:37;21.75;;;14.55;;
54191;SDS011;40101;53.002;6.488;2024-02-14T13:37:06;26.75;;;17.08;;
54191;SDS011;40101;53.002;6.488;2024-02-14T13:39:41;28.67;;;15.13;;
54191;SDS011;40101;53.002;6.488;2024-02-14T13:42:27;23.95;;;16.45;;
54191;SDS011;40101;53.002;6.488;2024-02-14T13:44:53;23.70;;;14.98;;
54191;SDS011;40101;53.002;6.488;2024-02-14T13:47:19;23.52;;;15.50;;
54191;SDS011;40101;53.002;6.488;2024-02-14T13:49:45;26.95;;;15.75;;
54191;SDS011;40101;53.002;6.488;2024-02-14T13:52:11;20.65;;;14.85;;
54191;SDS011;40101;53.002;6.488;2024-02-14T13:54:37;21.88;;;14.18;;
54191;SDS011;40101;53.002;6.488;2024-02-14T13:57:02;17.52;;;13.98;;
54191;SDS011;40101;53.002;6.488;2024-02-14T13:59:28;19.02;;;13.02;;
54191;SDS011;40101;53.002;6.488;2024-02-14T14:01:54;18.95;;;12.82;;
54191;SDS011;40101;53.002;6.488;2024-02-14T14:04:20;16.88;;;11.63;;
54191;SDS011;40101;53.002;6.488;2024-02-14T14:06:46;14.05;;;10.60;;
54191;SDS011;40101;53.002;6.488;2024-02-14T14:09:12;14.45;;;10.27;;
54191;SDS011;40101;53.002;6.488;2024-02-14T14:11:38;18.95;;;10.65;;
54191;SDS011;40101;53.002;6.488;2024-02-14T14:14:04;15.95;;;11.55;;
54191;SDS011;40101;53.002;6.488;2024-02-14T14:16:30;12.35;;;9.75;;
54191;SDS011;40101;53.002;6.488;2024-02-14T14:18:58;12.65;;;9.18;;
54191;SDS011;40101;53.002;6.488;2024-02-14T14:21:24;13.50;;;9.05;;
54191;SDS011;40101;53.002;6.488;2024-02-14T14:23:50;11.73;;;8.82;;
54191;SDS011;40101;53.002;6.488;2024-02-14T14:26:15;13.35;;;9.45;;
54191;SDS011;40101;53.002;6.488;2024-02-14T14:28:41;13.10;;;8.38;;
54191;SDS011;40101;53.002;6.488;2024-02-14T14:31:07;11.00;;;8.55;;
54191;SDS011;40101;53.002;6.488;2024-02-14T14:33:36;12.25;;;8.65;;
54191;SDS011;40101;53.002;6.488;2024-02-14T14:36:05;12.07;;;9.23;;
54191;SDS011;40101;53.002;6.488;2024-02-14T14:38:31;10.77;;;8.45;;
54191;SDS011;40101;53.002;6.488;2024-02-14T14:40:57;14.27;;;8.15;;
54191;SDS011;40101;53.002;6.488;2024-02-14T14:43:24;12.35;;;9.05;;
54191;SDS011;40101;53.002;6.488;2024-02-14T14:45:50;11.25;;;7.97;;
54191;SDS011;40101;53.002;6.488;2024-02-14T14:48:17;10.55;;;7.70;;
54191;SDS011;40101;53.002;6.488;2024-02-14T14:50:43;9.88;;;7.47;;
54191;SDS011;40101;53.002;6.488;2024-02-14T14:53:09;10.75;;;7.50;;
54191;SDS011;40101;53.002;6.488;2024-02-14T14:55:50;8.25;;;6.60;;
54191;SDS011;40101;53.002;6.488;2024-02-14T14:58:20;8.77;;;6.35;;
54191;SDS011;40101;53.002;6.488;2024-02-14T15:00:47;8.32;;;6.32;;
54191;SDS011;40101;53.002;6.488;2024-02-14T15:03:13;7.53;;;6.07;;
54191;SDS011;40101;53.002;6.488;2024-02-14T15:05:39;7.18;;;6.07;;
54191;SDS011;40101;53.002;6.488;2024-02-14T15:08:06;9.05;;;6.15;;
54191;SDS011;40101;53.002;6.488;2024-02-14T15:10:36;7.07;;;5.60;;
54191;SDS011;40101;53.002;6.488;2024-02-14T15:13:05;6.53;;;5.35;;
54191;SDS011;40101;53.002;6.488;2024-02-14T15:15:34;6.60;;;5.50;;
54191;SDS011;40101;53.002;6.488;2024-02-14T15:18:00;6.60;;;5.63;;
54191;SDS011;40101;53.002;6.488;2024-02-14T15:20:25;8.77;;;5.43;;
54191;SDS011;40101;53.002;6.488;2024-02-14T15:22:51;6.00;;;5.13;;
54191;SDS011;40101;53.002;6.488;2024-02-14T15:25:17;7.00;;;6.00;;
54191;SDS011;40101;53.002;6.488;2024-02-14T15:27:42;8.45;;;6.65;;